createdAt,value
2023-03-02T00:00:00.979Z,65.12
2023-03-02T00:00:14.700Z,65.57
2023-03-02T00:00:27.012Z,66.07
2023-03-02T00:00:40.722Z,66.42
2023-03-02T00:00:55.643Z,66.52
2023-03-02T00:01:10.991Z,66.62
2023-03-02T00:01:27.743Z,66.77
2023-03-02T00:01:44.119Z,67.19
2023-03-02T00:02:00.730Z,67.24
2023-03-02T00:02:16.482Z,66.99
2023-03-02T00:02:29.530Z,66.98
2023-03-02T00:02:42.868Z,66.96
2023-03-02T00:02:55.453Z,67.34
2023-03-02T00:03:12.756Z,67.38
2023-03-02T00:03:27.264Z,67.39
2023-03-02T00:03:41.646Z,67.31
2023-03-02T00:03:55.790Z,67.71
2023-03-02T00:04:12.716Z,67.78
2023-03-02T00:04:28.859Z,67.97
2023-03-02T00:04:44.224Z,68.48
2023-03-02T00:04:58.495Z,68.59
2023-03-02T00:05:11.346Z,68.79
2023-03-02T00:05:24.617Z,68.73
2023-03-02T00:05:39.447Z,69.00
2023-03-02T00:05:51.931Z,68.67
2023-03-02T00:06:05.828Z,69.07
2023-03-02T00:06:20.142Z,69.02
2023-03-02T00:06:34.492Z,68.95
2023-03-02T00:06:47.437Z,69.20
2023-03-02T00:07:03.929Z,69.38
2023-03-02T00:07:21.146Z,69.54
2023-03-02T00:07:34.964Z,70.17
2023-03-02T00:07:47.227Z,70.46
2023-03-02T00:08:00.098Z,70.77
2023-03-02T00:08:13.974Z,71.61
2023-03-02T00:08:27.432Z,71.71
2023-03-02T00:08:40.416Z,72.01
2023-03-02T00:08:53.602Z,72.66
2023-03-02T00:09:06.018Z,73.08
2023-03-02T00:09:18.316Z,72.94
2023-03-02T00:09:31.094Z,73.81
2023-03-02T00:09:44.103Z,73.97
2023-03-02T00:09:56.839Z,74.11
2023-03-02T00:10:11.035Z,73.62
2023-03-02T00:10:23.462Z,74.24
2023-03-02T00:10:36.715Z,74.43
2023-03-02T00:10:49.568Z,73.94
2023-03-02T00:11:02.686Z,74.14
2023-03-02T00:11:15.611Z,74.05
2023-03-02T00:11:37.557Z,74.52
2023-03-02T00:11:51.373Z,74.51
2023-03-02T00:12:05.600Z,74.46
2023-03-02T00:12:18.782Z,74.48
2023-03-02T00:12:32.796Z,74.90
2023-03-02T00:12:45.557Z,74.57
2023-03-02T00:12:58.880Z,74.54
2023-03-02T00:13:14.024Z,74.45
2023-03-02T00:13:26.534Z,74.83
2023-03-02T00:13:39.395Z,75.08
2023-03-02T00:13:52.127Z,74.92
2023-03-02T00:14:06.019Z,75.30
2023-03-02T00:14:18.085Z,75.85
2023-03-02T00:14:31.033Z,75.52
2023-03-02T00:14:43.643Z,75.92
2023-03-02T00:14:56.722Z,75.28
2023-03-02T00:15:13.925Z,75.27
2023-03-02T00:15:26.763Z,75.92
2023-03-02T00:15:39.177Z,76.00
2023-03-02T00:15:51.656Z,75.84
2023-03-02T00:16:06.406Z,76.22
2023-03-02T00:16:19.249Z,76.01
2023-03-02T00:16:32.165Z,76.29
2023-03-02T00:16:45.598Z,76.70
2023-03-02T00:17:00.050Z,76.98
2023-03-02T00:17:14.574Z,77.23
2023-03-02T00:17:29.697Z,77.14
2023-03-02T00:17:42.136Z,77.28
2023-03-02T00:17:55.061Z,77.67
2023-03-02T00:18:08.440Z,77.70
2023-03-02T00:18:21.001Z,78.32
2023-03-02T00:18:33.300Z,78.50
2023-03-02T00:18:46.247Z,78.02
2023-03-02T00:18:59.744Z,78.40
2023-03-02T00:19:13.589Z,78.47
2023-03-02T00:19:26.013Z,78.38
2023-03-02T00:19:38.394Z,78.83
2023-03-02T00:19:52.833Z,78.67
2023-03-02T00:20:06.876Z,78.85
2023-03-02T00:20:20.241Z,78.83
2023-03-02T00:20:32.678Z,79.15
2023-03-02T00:20:46.164Z,79.05
2023-03-02T00:20:58.878Z,78.97
2023-03-02T00:21:13.018Z,78.85
2023-03-02T00:21:25.213Z,79.45
2023-03-02T00:21:37.734Z,79.55
2023-03-02T00:21:50.472Z,80.14
2023-03-02T00:22:03.881Z,80.07
2023-03-02T00:22:16.882Z,80.02
2023-03-02T00:22:29.344Z,80.38
2023-03-02T00:22:44.973Z,80.18
2023-03-02T00:22:57.738Z,80.69
2023-03-02T00:23:10.089Z,81.12
2023-03-02T00:23:24.068Z,81.33
2023-03-02T00:23:36.287Z,81.72
2023-03-02T00:23:51.549Z,81.69
2023-03-02T00:24:06.080Z,81.42
2023-03-02T00:24:18.408Z,82.14
2023-03-02T00:24:30.540Z,81.76
2023-03-02T00:24:45.488Z,82.43
2023-03-02T00:24:58.253Z,83.19
2023-03-02T00:25:11.380Z,83.03
2023-03-02T00:25:23.701Z,83.46
2023-03-02T00:25:36.385Z,83.49
2023-03-02T00:25:48.697Z,83.25
2023-03-02T00:26:01.693Z,84.22
2023-03-02T00:26:14.209Z,84.53
2023-03-02T00:26:27.632Z,84.81
2023-03-02T00:26:40.280Z,85.75
2023-03-02T00:26:53.026Z,86.35
2023-03-02T00:27:05.226Z,87.14
2023-03-02T00:27:17.530Z,87.66
2023-03-02T00:27:29.506Z,87.69
2023-03-02T00:27:42.884Z,88.04
2023-03-02T00:27:55.433Z,88.30
2023-03-02T00:28:08.369Z,88.58
2023-03-02T00:28:22.202Z,88.47
2023-03-02T00:28:34.648Z,88.68
2023-03-02T00:28:48.539Z,88.92
2023-03-02T00:29:00.675Z,89.41
2023-03-02T00:29:13.623Z,89.11
2023-03-02T00:29:25.959Z,89.45
2023-03-02T00:29:39.029Z,89.48
2023-03-02T00:29:51.755Z,89.68
2023-03-02T00:30:04.315Z,89.82
2023-03-02T00:30:18.882Z,89.98
2023-03-02T00:30:31.003Z,90.01
2023-03-02T00:30:43.759Z,90.33
2023-03-02T00:30:56.151Z,90.32
2023-03-02T00:31:08.990Z,90.23
2023-03-02T00:31:22.989Z,90.66
2023-03-02T00:31:37.530Z,91.34
2023-03-02T00:31:51.250Z,91.06
2023-03-02T00:32:04.247Z,91.20
2023-03-02T00:32:16.441Z,91.15
2023-03-02T00:32:29.033Z,91.46
2023-03-02T00:32:41.609Z,91.45
2023-03-02T00:32:53.746Z,91.74
2023-03-02T00:33:05.945Z,91.68
2023-03-02T00:33:18.152Z,91.82
2023-03-02T00:33:30.636Z,91.70
2023-03-02T00:33:42.826Z,91.54
2023-03-02T00:33:56.053Z,91.76
2023-03-02T00:34:08.600Z,91.94
2023-03-02T00:34:20.858Z,91.69
2023-03-02T00:34:33.613Z,92.40
2023-03-02T00:34:46.005Z,92.05
2023-03-02T00:34:58.655Z,92.33
2023-03-02T00:35:11.357Z,92.00
2023-03-02T00:35:24.092Z,92.25
2023-03-02T00:35:39.570Z,91.94
2023-03-02T00:35:52.709Z,92.70
2023-03-02T00:36:16.528Z,92.76
2023-03-02T00:36:30.028Z,92.76
2023-03-02T00:36:42.896Z,92.39
2023-03-02T00:36:55.360Z,92.60
2023-03-02T00:37:08.191Z,92.37
2023-03-02T00:37:23.438Z,92.59
2023-03-02T00:37:36.823Z,93.06
2023-03-02T00:37:50.173Z,93.28
2023-03-02T00:38:02.673Z,92.81
2023-03-02T00:38:14.823Z,93.14
2023-03-02T00:38:28.205Z,92.88
2023-03-02T00:38:41.080Z,93.36
2023-03-02T00:38:53.516Z,93.17
2023-03-02T00:39:05.905Z,93.20
2023-03-02T00:39:18.003Z,93.12
2023-03-02T00:39:30.898Z,93.49
2023-03-02T00:39:44.118Z,93.35
2023-03-02T00:39:56.837Z,93.09
2023-03-02T00:40:10.724Z,93.22
2023-03-02T00:40:23.090Z,93.63
2023-03-02T00:40:36.547Z,93.31
2023-03-02T00:40:49.622Z,93.15
2023-03-02T00:41:02.755Z,93.07
2023-03-02T00:41:16.485Z,93.19
2023-03-02T00:41:29.013Z,93.82
2023-03-02T00:41:41.926Z,93.69
2023-03-02T00:41:55.964Z,93.86
2023-03-02T00:42:08.562Z,93.74
2023-03-02T00:42:20.729Z,93.71
2023-03-02T00:42:32.772Z,93.60
2023-03-02T00:42:46.258Z,93.81
2023-03-02T00:42:58.369Z,93.97
2023-03-02T00:43:10.955Z,93.56
2023-03-02T00:43:24.308Z,93.77
2023-03-02T00:43:36.749Z,93.57
2023-03-02T00:43:50.397Z,93.79
2023-03-02T00:44:02.594Z,94.13
2023-03-02T00:44:15.407Z,94.17
2023-03-02T00:44:27.934Z,93.66
2023-03-02T00:44:40.895Z,94.18
2023-03-02T00:44:53.466Z,94.28
2023-03-02T00:45:07.093Z,94.30
2023-03-02T00:45:21.252Z,94.24
2023-03-02T00:45:35.511Z,94.10
2023-03-02T00:45:48.347Z,94.01
2023-03-02T00:46:11.169Z,94.15
2023-03-02T00:46:25.195Z,94.49
2023-03-02T00:46:39.780Z,94.70
2023-03-02T00:46:54.069Z,94.70
2023-03-02T00:47:07.538Z,94.44
2023-03-02T00:47:20.565Z,94.31
2023-03-02T00:47:34.750Z,94.59
2023-03-02T00:47:47.738Z,94.71
2023-03-02T00:48:00.460Z,94.52
2023-03-02T00:48:13.508Z,94.74
2023-03-02T00:48:25.964Z,94.92
2023-03-02T00:48:39.998Z,94.64
2023-03-02T00:48:53.090Z,95.04
2023-03-02T00:49:05.294Z,94.86
2023-03-02T00:49:18.205Z,94.65
2023-03-02T00:49:31.124Z,95.14
2023-03-02T00:49:43.499Z,94.55
2023-03-02T00:49:56.623Z,94.93
2023-03-02T00:50:10.638Z,94.96
2023-03-02T00:50:23.533Z,94.89
2023-03-02T00:50:36.698Z,94.93
2023-03-02T00:50:48.776Z,95.28
2023-03-02T00:51:02.485Z,95.78
2023-03-02T00:51:15.450Z,95.83
2023-03-02T00:51:28.133Z,95.67
2023-03-02T00:51:41.334Z,95.41
2023-03-02T00:51:54.154Z,95.55
2023-03-02T00:52:06.862Z,95.74
2023-03-02T00:52:19.327Z,95.70
2023-03-02T00:52:31.835Z,95.46
2023-03-02T00:52:43.676Z,95.94
2023-03-02T00:52:57.264Z,96.10
2023-03-02T00:53:09.912Z,96.33
2023-03-02T00:53:22.195Z,96.40
2023-03-02T00:53:35.923Z,96.47
2023-03-02T00:53:49.616Z,96.35
2023-03-02T00:54:01.731Z,96.32
2023-03-02T00:54:15.911Z,96.42
2023-03-02T00:54:28.367Z,96.67
2023-03-02T00:54:40.814Z,96.78
2023-03-02T00:54:53.904Z,96.50
2023-03-02T00:55:07.721Z,96.72
2023-03-02T00:55:21.322Z,96.53
2023-03-02T00:55:34.421Z,96.88
2023-03-02T00:55:53.939Z,96.71
2023-03-02T00:56:07.752Z,96.88
2023-03-02T00:56:22.983Z,97.10
2023-03-02T00:56:38.071Z,96.69
2023-03-02T00:56:52.079Z,96.97
2023-03-02T00:57:05.576Z,97.26
2023-03-02T00:57:18.618Z,96.69
2023-03-02T00:57:34.056Z,96.87
2023-03-02T00:57:46.697Z,96.73
2023-03-02T00:57:59.234Z,97.15
2023-03-02T00:58:14.850Z,97.43
2023-03-02T00:58:29.124Z,96.87
2023-03-02T00:58:42.237Z,97.14
2023-03-02T00:58:56.013Z,97.13
2023-03-02T00:59:10.586Z,96.99
2023-03-02T00:59:23.107Z,96.96
2023-03-02T00:59:37.638Z,97.47
2023-03-02T00:59:57.380Z,97.42
2023-03-02T01:00:18.968Z,97.29
2023-03-02T01:00:33.594Z,97.32
2023-03-02T01:00:50.643Z,97.26
2023-03-02T01:01:07.040Z,97.41
2023-03-02T01:01:21.641Z,96.92
2023-03-02T01:01:38.075Z,97.39
2023-03-02T01:01:51.170Z,97.26
2023-03-02T01:02:05.857Z,97.32
2023-03-02T01:02:20.498Z,97.11
2023-03-02T01:02:33.811Z,97.72
2023-03-02T01:02:46.837Z,97.40
2023-03-02T01:03:03.325Z,97.66
2023-03-02T01:03:16.022Z,97.60
2023-03-02T01:03:28.778Z,97.62
2023-03-02T01:03:42.451Z,97.69
2023-03-02T01:03:55.382Z,97.80
2023-03-02T01:04:08.346Z,97.93
2023-03-02T01:04:20.680Z,97.97
2023-03-02T01:04:35.704Z,97.86
2023-03-02T01:04:48.179Z,97.80
2023-03-02T01:05:00.552Z,98.19
2023-03-02T01:05:13.098Z,98.18
2023-03-02T01:05:25.644Z,97.63
2023-03-02T01:05:38.340Z,97.67
2023-03-02T01:05:50.687Z,97.92
2023-03-02T01:06:03.157Z,98.26
2023-03-02T01:06:16.130Z,98.20
2023-03-02T01:06:28.155Z,97.94
2023-03-02T01:06:40.941Z,97.83
2023-03-02T01:06:52.866Z,98.24
2023-03-02T01:07:09.340Z,97.98
2023-03-02T01:07:22.716Z,97.92
2023-03-02T01:07:36.963Z,97.90
2023-03-02T01:07:50.217Z,98.37
2023-03-02T01:08:04.279Z,97.97
2023-03-02T01:08:17.173Z,97.88
2023-03-02T01:08:29.671Z,98.21
2023-03-02T01:08:42.860Z,98.44
2023-03-02T01:08:54.962Z,98.22
2023-03-02T01:09:09.119Z,98.04
2023-03-02T01:09:21.312Z,98.24
2023-03-02T01:09:34.621Z,98.44
2023-03-02T01:09:46.685Z,98.37
2023-03-02T01:09:59.120Z,98.95
2023-03-02T01:10:12.780Z,98.53
2023-03-02T01:10:34.626Z,98.49
2023-03-02T01:10:48.279Z,98.77
2023-03-02T01:11:01.026Z,98.55
2023-03-02T01:11:14.765Z,98.70
2023-03-02T01:11:27.029Z,98.60
2023-03-02T01:11:39.261Z,98.59
2023-03-02T01:11:52.849Z,98.91
2023-03-02T01:12:05.840Z,98.77
2023-03-02T01:12:18.305Z,99.26
2023-03-02T01:12:32.570Z,98.62
2023-03-02T01:12:45.709Z,98.87
2023-03-02T01:12:58.382Z,99.06
2023-03-02T01:13:11.270Z,99.02
2023-03-02T01:13:24.679Z,98.81
2023-03-02T01:13:41.099Z,99.33
2023-03-02T01:13:54.228Z,98.97
2023-03-02T01:14:06.290Z,99.10
2023-03-02T01:14:18.218Z,99.17
2023-03-02T01:14:30.637Z,99.00
2023-03-02T01:14:44.458Z,99.43
2023-03-02T01:14:57.884Z,99.44
2023-03-02T01:15:11.000Z,99.16
2023-03-02T01:15:24.000Z,99.14
2023-03-02T01:15:37.602Z,99.44
2023-03-02T01:15:59.670Z,99.46
2023-03-02T01:16:12.786Z,98.99
2023-03-02T01:16:25.532Z,99.70
2023-03-02T01:16:38.319Z,99.01
2023-03-02T01:16:50.991Z,99.40
2023-03-02T01:17:03.742Z,99.34
2023-03-02T01:17:16.559Z,99.58
2023-03-02T01:17:30.339Z,99.50
2023-03-02T01:17:43.132Z,99.32
2023-03-02T01:17:55.750Z,99.33
2023-03-02T01:18:07.897Z,99.55
2023-03-02T01:18:20.610Z,99.49
2023-03-02T01:18:33.980Z,99.19
2023-03-02T01:18:45.991Z,99.55
2023-03-02T01:18:58.513Z,99.23
2023-03-02T01:19:11.079Z,99.72
2023-03-02T01:19:23.506Z,99.41
2023-03-02T01:19:36.672Z,99.14
2023-03-02T01:19:49.279Z,99.39
2023-03-02T01:20:02.014Z,99.48
2023-03-02T01:20:14.533Z,99.16
2023-03-02T01:20:28.851Z,98.88
2023-03-02T01:20:40.909Z,98.88
2023-03-02T01:21:01.028Z,99.07
2023-03-02T01:21:15.757Z,98.91
2023-03-02T01:21:27.968Z,98.83
2023-03-02T01:21:39.825Z,99.15
2023-03-02T01:21:52.578Z,98.85
2023-03-02T01:22:05.385Z,98.56
2023-03-02T01:22:17.888Z,98.56
2023-03-02T01:22:30.401Z,98.50
2023-03-02T01:22:43.975Z,98.63
2023-03-02T01:22:56.737Z,98.18
2023-03-02T01:23:09.280Z,98.04
2023-03-02T01:23:21.816Z,97.91
2023-03-02T01:23:35.263Z,98.15
2023-03-02T01:23:47.336Z,97.94
2023-03-02T01:24:01.445Z,97.62
2023-03-02T01:24:13.625Z,97.99
2023-03-02T01:24:26.301Z,97.69
2023-03-02T01:24:38.685Z,97.80
2023-03-02T01:24:51.119Z,98.03
2023-03-02T01:25:04.015Z,98.25
2023-03-02T01:25:16.357Z,98.16
2023-03-02T01:25:28.865Z,98.05
2023-03-02T01:25:41.061Z,98.09
2023-03-02T01:25:53.497Z,98.43
2023-03-02T01:26:06.395Z,98.20
2023-03-02T01:26:19.077Z,98.17
2023-03-02T01:26:31.567Z,98.12
2023-03-02T01:26:44.360Z,98.14
2023-03-02T01:26:56.951Z,98.14
2023-03-02T01:27:09.133Z,97.97
2023-03-02T01:27:21.408Z,98.37
2023-03-02T01:27:33.916Z,98.01
2023-03-02T01:27:47.111Z,98.65
2023-03-02T01:27:59.794Z,98.26
2023-03-02T01:28:12.948Z,98.28
2023-03-02T01:28:25.220Z,98.55
2023-03-02T01:28:39.142Z,98.71
2023-03-02T01:28:51.452Z,98.55
2023-03-02T01:29:03.666Z,98.25
2023-03-02T01:29:16.854Z,98.46
2023-03-02T01:29:29.085Z,98.51
2023-03-02T01:29:42.200Z,98.84
2023-03-02T01:29:54.878Z,98.83
2023-03-02T01:30:08.542Z,98.62
2023-03-02T01:30:21.034Z,98.74
2023-03-02T01:30:33.433Z,98.65
2023-03-02T01:30:46.016Z,99.07
2023-03-02T01:30:58.212Z,98.64
2023-03-02T01:31:11.762Z,99.23
2023-03-02T01:31:25.839Z,98.69
2023-03-02T01:31:39.143Z,99.31
2023-03-02T01:31:54.258Z,99.27
2023-03-02T01:32:06.527Z,98.99
2023-03-02T01:32:19.039Z,99.06
2023-03-02T01:32:31.813Z,99.25
2023-03-02T01:32:44.148Z,99.45
2023-03-02T01:32:56.249Z,99.57
2023-03-02T01:33:08.773Z,99.30
2023-03-02T01:33:21.162Z,99.43
2023-03-02T01:33:34.437Z,99.74
2023-03-02T01:33:47.616Z,99.54
2023-03-02T01:34:02.184Z,99.77
2023-03-02T01:34:15.322Z,99.92
2023-03-02T01:34:27.826Z,99.78
2023-03-02T01:34:41.732Z,100.00
2023-03-02T01:34:54.042Z,100.00
2023-03-02T01:35:07.949Z,100.00
2023-03-02T01:35:20.044Z,99.91
2023-03-02T01:35:32.733Z,99.83
2023-03-02T01:35:45.344Z,99.64
2023-03-02T01:35:57.737Z,100.00
2023-03-02T01:36:10.780Z,99.63
2023-03-02T01:36:23.269Z,100.00
2023-03-02T01:36:36.121Z,99.75
2023-03-02T01:36:48.308Z,100.00
2023-03-02T01:37:01.012Z,99.90
2023-03-02T01:37:13.092Z,99.99
2023-03-02T01:37:26.351Z,99.91
2023-03-02T01:37:38.998Z,99.92
2023-03-02T01:37:51.132Z,100.00
2023-03-02T01:38:03.865Z,100.00
2023-03-02T01:38:16.325Z,100.00
2023-03-02T01:38:29.094Z,99.91
2023-03-02T01:38:41.046Z,100.00
2023-03-02T01:38:53.378Z,100.00
2023-03-02T01:39:05.876Z,100.00
2023-03-02T01:39:18.067Z,100.00
2023-03-02T01:39:30.710Z,100.00
2023-03-02T01:39:43.333Z,100.00
2023-03-02T01:39:55.588Z,100.00
2023-03-02T01:40:10.913Z,100.00
2023-03-02T01:40:23.455Z,100.00
2023-03-02T01:40:36.437Z,100.00
2023-03-02T01:40:48.883Z,100.00
2023-03-02T01:41:00.828Z,100.00
2023-03-02T01:41:13.777Z,100.00
2023-03-02T01:41:27.729Z,100.00
2023-03-02T01:41:40.353Z,100.00
2023-03-02T01:41:53.206Z,100.00
2023-03-02T01:42:05.930Z,100.00
2023-03-02T01:42:19.148Z,100.00
2023-03-02T01:42:37.259Z,100.00
2023-03-02T01:42:57.091Z,100.00
2023-03-02T01:43:13.589Z,100.00
2023-03-02T01:43:25.813Z,100.00
2023-03-02T01:43:40.173Z,100.00
2023-03-02T01:43:54.194Z,100.00
2023-03-02T01:44:06.525Z,100.00
2023-03-02T01:44:40.977Z,100.00
2023-03-02T01:44:54.209Z,100.00
2023-03-02T01:45:22.279Z,100.00
2023-03-02T01:45:50.084Z,100.00
2023-03-02T01:46:08.472Z,100.00
2023-03-02T01:46:41.380Z,100.00
2023-03-02T01:46:56.136Z,100.00
2023-03-02T01:47:13.891Z,100.00
2023-03-02T01:47:38.636Z,100.00
2023-03-02T01:48:06.698Z,100.00
2023-03-02T01:48:23.874Z,100.00
2023-03-02T01:48:43.069Z,100.00
2023-03-02T01:48:58.824Z,100.00
2023-03-02T01:49:22.004Z,100.00
2023-03-02T01:49:43.662Z,100.00
2023-03-02T01:49:58.948Z,100.00
2023-03-02T01:50:21.028Z,100.00
2023-03-02T01:50:34.952Z,100.00
2023-03-02T01:50:47.465Z,100.00
2023-03-02T01:51:02.831Z,100.00
2023-03-02T01:51:18.645Z,100.00
2023-03-02T01:51:37.807Z,100.00
2023-03-02T01:51:50.852Z,100.00
2023-03-02T01:52:04.729Z,100.00
2023-03-02T01:52:19.030Z,100.00
2023-03-02T01:52:34.952Z,100.00
2023-03-02T01:52:48.370Z,100.00
2023-03-02T01:53:02.061Z,100.00
2023-03-02T01:53:16.366Z,100.00
2023-03-02T01:53:31.580Z,100.00
2023-03-02T01:53:48.087Z,100.00
2023-03-02T01:54:03.957Z,100.00
2023-03-02T01:54:20.919Z,100.00
2023-03-02T01:54:32.834Z,100.00
2023-03-02T01:54:49.125Z,100.00
2023-03-02T01:55:07.366Z,100.00
2023-03-02T01:55:24.797Z,100.00
2023-03-02T01:55:41.024Z,100.00
2023-03-02T01:55:53.406Z,100.00
2023-03-02T01:56:25.745Z,100.00
2023-03-02T01:56:41.081Z,100.00
2023-03-02T01:56:58.365Z,100.00
2023-03-02T01:57:11.440Z,100.00
2023-03-02T01:57:28.662Z,100.00
2023-03-02T01:57:45.064Z,100.00
2023-03-02T01:57:59.578Z,100.00
2023-03-02T01:58:13.703Z,100.00
2023-03-02T01:58:28.137Z,100.00
2023-03-02T01:58:42.630Z,100.00
2023-03-02T01:58:59.698Z,100.00
2023-03-02T01:59:16.631Z,100.00
2023-03-02T01:59:32.236Z,100.00
2023-03-02T01:59:48.138Z,100.00
2023-03-02T02:00:05.820Z,100.00
2023-03-02T02:00:27.039Z,100.00
2023-03-02T02:00:40.100Z,100.00
2023-03-02T02:00:55.046Z,100.00
2023-03-02T02:01:08.080Z,100.00
2023-03-02T02:01:21.307Z,100.00
2023-03-02T02:01:37.511Z,100.00
2023-03-02T02:01:51.978Z,100.00
2023-03-02T02:02:09.058Z,100.00
2023-03-02T02:02:22.008Z,100.00
2023-03-02T02:02:36.260Z,100.00
2023-03-02T02:02:49.570Z,100.00
2023-03-02T02:03:06.959Z,100.00
2023-03-02T02:03:23.661Z,100.00
2023-03-02T02:03:37.255Z,100.00
2023-03-02T02:03:51.205Z,100.00
2023-03-02T02:04:06.738Z,100.00
2023-03-02T02:04:19.752Z,100.00
2023-03-02T02:04:34.371Z,100.00
2023-03-02T02:04:48.928Z,100.00
2023-03-02T02:05:02.326Z,100.00
2023-03-02T02:05:18.952Z,100.00
2023-03-02T02:05:31.628Z,100.00
2023-03-02T02:05:48.879Z,100.00
2023-03-02T02:06:09.093Z,100.00
2023-03-02T02:06:24.997Z,100.00
2023-03-02T02:06:39.132Z,100.00
2023-03-02T02:06:56.485Z,100.00
2023-03-02T02:07:12.165Z,100.00
2023-03-02T02:07:26.054Z,100.00
2023-03-02T02:07:39.759Z,100.00
2023-03-02T02:07:53.256Z,100.00
2023-03-02T02:08:05.463Z,100.00
2023-03-02T02:08:19.718Z,100.00
2023-03-02T02:08:32.866Z,100.00
2023-03-02T02:08:45.612Z,100.00
2023-03-02T02:09:01.280Z,100.00
2023-03-02T02:09:16.697Z,100.00
2023-03-02T02:09:32.338Z,100.00
2023-03-02T02:09:50.168Z,100.00
2023-03-02T02:10:03.253Z,100.00
2023-03-02T02:10:16.037Z,100.00
2023-03-02T02:10:28.918Z,100.00
2023-03-02T02:10:42.138Z,100.00
2023-03-02T02:10:55.182Z,100.00
2023-03-02T02:11:07.496Z,100.00
2023-03-02T02:11:20.350Z,100.00
2023-03-02T02:11:36.673Z,100.00
2023-03-02T02:11:49.730Z,100.00
2023-03-02T02:12:04.746Z,100.00
2023-03-02T02:12:19.105Z,100.00
2023-03-02T02:12:31.880Z,100.00
2023-03-02T02:12:43.811Z,100.00
2023-03-02T02:12:56.021Z,100.00
2023-03-02T02:13:11.865Z,100.00
2023-03-02T02:13:25.657Z,100.00
2023-03-02T02:13:38.118Z,100.00
2023-03-02T02:13:56.053Z,100.00
2023-03-02T02:14:12.827Z,100.00
2023-03-02T02:14:25.347Z,100.00
2023-03-02T02:14:38.462Z,100.00
2023-03-02T02:14:51.352Z,100.00
2023-03-02T02:15:06.761Z,100.00
2023-03-02T02:15:19.272Z,100.00
2023-03-02T02:15:31.566Z,100.00
2023-03-02T02:15:44.984Z,100.00
2023-03-02T02:15:57.361Z,100.00
2023-03-02T02:16:10.209Z,100.00
2023-03-02T02:16:23.040Z,100.00
2023-03-02T02:16:36.989Z,100.00
2023-03-02T02:16:50.870Z,100.00
2023-03-02T02:17:03.734Z,100.00
2023-03-02T02:17:17.120Z,100.00
2023-03-02T02:17:30.556Z,100.00
2023-03-02T02:17:42.548Z,100.00
2023-03-02T02:17:54.948Z,100.00
2023-03-02T02:18:09.298Z,100.00
2023-03-02T02:18:21.440Z,100.00
2023-03-02T02:18:35.923Z,100.00
2023-03-02T02:18:48.325Z,100.00
2023-03-02T02:19:01.579Z,100.00
2023-03-02T02:19:24.996Z,100.00
2023-03-02T02:20:01.101Z,100.00
2023-03-02T02:20:23.314Z,100.00
2023-03-02T02:20:38.039Z,100.00
2023-03-02T02:20:54.124Z,100.00
2023-03-02T02:21:07.242Z,100.00
2023-03-02T02:21:24.796Z,100.00
2023-03-02T02:21:38.036Z,100.00
2023-03-02T02:21:50.729Z,100.00
2023-03-02T02:22:03.589Z,100.00
2023-03-02T02:22:29.139Z,100.00
2023-03-02T02:22:58.505Z,100.00
2023-03-02T02:23:23.203Z,100.00
2023-03-02T02:23:42.756Z,100.00
2023-03-02T02:24:06.372Z,100.00
2023-03-02T02:24:26.824Z,100.00
2023-03-02T02:24:45.192Z,100.00
2023-03-02T02:25:04.206Z,100.00
2023-03-02T02:25:26.925Z,100.00
2023-03-02T02:25:48.515Z,100.00
2023-03-02T02:26:12.861Z,100.00
2023-03-02T02:26:28.240Z,100.00
2023-03-02T02:26:45.408Z,100.00
2023-03-02T02:26:58.174Z,100.00
2023-03-02T02:27:12.958Z,100.00
2023-03-02T02:27:26.010Z,100.00
2023-03-02T02:27:38.728Z,100.00
2023-03-02T02:27:52.043Z,100.00
2023-03-02T02:28:11.292Z,100.00
2023-03-02T02:28:29.206Z,100.00
2023-03-02T02:28:43.955Z,100.00
2023-03-02T02:29:00.918Z,100.00
2023-03-02T02:29:15.849Z,100.00
2023-03-02T02:29:31.681Z,100.00
2023-03-02T02:29:48.731Z,100.00
2023-03-02T02:30:05.082Z,100.00
2023-03-02T02:30:21.045Z,100.00
2023-03-02T02:30:33.644Z,100.00
2023-03-02T02:30:50.658Z,100.00
2023-03-02T02:31:09.759Z,100.00
2023-03-02T02:31:26.609Z,100.00
2023-03-02T02:31:44.979Z,100.00
2023-03-02T02:32:02.654Z,100.00
2023-03-02T02:32:19.101Z,100.00
2023-03-02T02:32:36.693Z,100.00
2023-03-02T02:32:54.349Z,100.00
2023-03-02T02:33:09.064Z,100.00
2023-03-02T02:33:25.474Z,100.00
2023-03-02T02:33:39.305Z,100.00
2023-03-02T02:33:57.588Z,100.00
2023-03-02T02:34:14.286Z,100.00
2023-03-02T02:34:32.219Z,100.00
2023-03-02T02:34:47.891Z,100.00
2023-03-02T02:35:03.917Z,100.00
2023-03-02T02:35:21.713Z,100.00
2023-03-02T02:35:37.436Z,100.00
2023-03-02T02:35:58.099Z,100.00
2023-03-02T02:36:16.154Z,100.00
2023-03-02T02:36:35.134Z,100.00
2023-03-02T02:36:56.635Z,100.00
2023-03-02T02:37:13.128Z,100.00
2023-03-02T02:37:30.806Z,100.00
2023-03-02T02:37:45.983Z,100.00
2023-03-02T02:38:06.421Z,100.00
2023-03-02T02:38:21.171Z,100.00
2023-03-02T02:38:36.735Z,100.00
2023-03-02T02:38:53.314Z,100.00
2023-03-02T02:39:10.932Z,100.00
2023-03-02T02:39:28.240Z,100.00
2023-03-02T02:39:43.387Z,100.00
2023-03-02T02:39:58.263Z,100.00
2023-03-02T02:40:16.625Z,100.00
2023-03-02T02:40:46.008Z,100.00
2023-03-02T02:41:03.906Z,100.00
2023-03-02T02:41:24.796Z,100.00
2023-03-02T02:41:58.290Z,100.00
2023-03-02T02:42:17.981Z,100.00
2023-03-02T02:42:34.457Z,100.00
2023-03-02T02:42:52.212Z,100.00
2023-03-02T02:43:07.035Z,100.00
2023-03-02T02:43:22.900Z,100.00
2023-03-02T02:43:37.627Z,100.00
2023-03-02T02:43:51.643Z,100.00
2023-03-02T02:44:04.565Z,100.00
2023-03-02T02:44:19.228Z,100.00
2023-03-02T02:44:32.269Z,100.00
2023-03-02T02:44:46.793Z,100.00
2023-03-02T02:45:03.239Z,100.00
2023-03-02T02:45:22.085Z,100.00
2023-03-02T02:45:35.562Z,100.00
2023-03-02T02:45:52.055Z,100.00
2023-03-02T02:46:04.467Z,100.00
2023-03-02T02:46:16.843Z,100.00
2023-03-02T02:46:29.855Z,100.00
2023-03-02T02:46:42.610Z,100.00
2023-03-02T02:46:57.068Z,100.00
2023-03-02T02:47:20.799Z,100.00
2023-03-02T02:47:33.405Z,100.00
2023-03-02T02:47:46.590Z,100.00
2023-03-02T02:47:59.360Z,100.00
2023-03-02T02:48:19.505Z,100.00
2023-03-02T02:48:32.511Z,100.00
2023-03-02T02:48:45.490Z,100.00
2023-03-02T02:49:00.118Z,100.00
2023-03-02T02:49:23.894Z,100.00
2023-03-02T02:49:38.523Z,100.00
2023-03-02T02:49:53.316Z,100.00
2023-03-02T02:50:15.547Z,100.00
2023-03-02T02:50:32.674Z,100.00
2023-03-02T02:50:46.683Z,100.00
2023-03-02T02:51:00.718Z,100.00
2023-03-02T02:51:21.747Z,100.00
2023-03-02T02:51:36.712Z,100.00
2023-03-02T02:51:49.157Z,100.00
2023-03-02T02:52:04.282Z,100.00
2023-03-02T02:52:18.090Z,100.00
2023-03-02T02:52:30.030Z,100.00
2023-03-02T02:52:44.058Z,100.00
2023-03-02T02:53:02.786Z,100.00
2023-03-02T02:53:19.599Z,100.00
2023-03-02T02:53:41.789Z,100.00
2023-03-02T02:53:57.172Z,100.00
2023-03-02T02:54:17.398Z,100.00
2023-03-02T02:54:32.192Z,100.00
2023-03-02T02:54:46.956Z,100.00
2023-03-02T02:55:00.160Z,100.00
2023-03-02T02:55:19.946Z,100.00
2023-03-02T02:55:35.028Z,100.00
2023-03-02T02:55:48.931Z,100.00
2023-03-02T02:56:03.033Z,100.00
2023-03-02T02:56:17.380Z,100.00
2023-03-02T02:56:34.827Z,100.00
2023-03-02T02:56:51.581Z,100.00
2023-03-02T02:57:05.503Z,100.00
2023-03-02T02:57:20.672Z,100.00
2023-03-02T02:57:36.674Z,100.00
2023-03-02T02:57:49.960Z,100.00
2023-03-02T02:58:06.943Z,100.00
2023-03-02T02:58:28.449Z,100.00
2023-03-02T02:58:47.725Z,100.00
2023-03-02T02:59:06.837Z,100.00
2023-03-02T02:59:23.523Z,100.00
2023-03-02T02:59:41.753Z,100.00
2023-03-02T02:59:56.226Z,100.00
2023-03-02T03:00:18.616Z,100.00
2023-03-02T03:00:31.459Z,100.00
2023-03-02T03:00:46.622Z,100.00
2023-03-02T03:01:00.056Z,100.00
2023-03-02T03:01:15.501Z,100.00
2023-03-02T03:01:29.157Z,100.00
2023-03-02T03:01:42.598Z,100.00
2023-03-02T03:01:55.746Z,100.00
2023-03-02T03:02:15.659Z,100.00
2023-03-02T03:02:33.432Z,100.00
2023-03-02T03:02:51.030Z,100.00
2023-03-02T03:03:07.449Z,100.00
2023-03-02T03:03:27.403Z,100.00
2023-03-02T03:03:39.517Z,100.00
2023-03-02T03:03:57.834Z,100.00
2023-03-02T03:04:15.012Z,100.00
2023-03-02T03:04:30.165Z,100.00